sensor_id;sensor_type;location;lat;lon;timestamp;P1;durP1;ratioP1;P2;durP2;ratioP2
35394;SDS011;21500;45.308;9.488;2022-12-04T08:16:41;19.85;;;14.52;;
35394;SDS011;21500;45.308;9.488;2022-12-04T12:32:20;10.02;;;9.18;;
35394;SDS011;21500;45.308;9.488;2022-12-04T12:34:55;12.45;;;9.48;;
35394;SDS011;21500;45.308;9.488;2022-12-04T12:40:14;11.95;;;10.75;;
35394;SDS011;21500;45.308;9.488;2022-12-04T12:50:42;11.73;;;10.63;;
35394;SDS011;21500;45.308;9.488;2022-12-04T13:10:15;10.30;;;9.40;;
35394;SDS011;21500;45.308;9.488;2022-12-04T13:13:33;12.15;;;10.95;;
35394;SDS011;21500;45.308;9.488;2022-12-04T13:16:25;11.30;;;10.20;;
35394;SDS011;21500;45.308;9.488;2022-12-04T13:27:27;10.05;;;8.95;;
35394;SDS011;21500;45.308;9.488;2022-12-04T13:30:20;11.40;;;10.25;;
35394;SDS011;21500;45.308;9.488;2022-12-04T13:33:15;11.55;;;10.35;;
35394;SDS011;21500;45.308;9.488;2022-12-04T13:46:38;11.75;;;10.52;;
35394;SDS011;21500;45.308;9.488;2022-12-04T13:51:43;10.82;;;9.73;;
35394;SDS011;21500;45.308;9.488;2022-12-04T13:56:37;10.52;;;9.52;;
35394;SDS011;21500;45.308;9.488;2022-12-04T13:59:05;12.18;;;10.45;;
35394;SDS011;21500;45.308;9.488;2022-12-04T14:01:46;9.32;;;8.38;;
35394;SDS011;21500;45.308;9.488;2022-12-04T14:08:00;11.85;;;10.25;;
35394;SDS011;21500;45.308;9.488;2022-12-04T14:10:34;10.18;;;9.20;;
35394;SDS011;21500;45.308;9.488;2022-12-04T14:13:07;10.73;;;9.63;;
35394;SDS011;21500;45.308;9.488;2022-12-04T14:15:45;10.95;;;9.85;;
35394;SDS011;21500;45.308;9.488;2022-12-04T14:20:37;10.55;;;9.55;;
35394;SDS011;21500;45.308;9.488;2022-12-04T14:23:06;10.75;;;9.73;;
35394;SDS011;21500;45.308;9.488;2022-12-04T14:25:50;10.77;;;9.68;;
35394;SDS011;21500;45.308;9.488;2022-12-04T14:28:26;11.15;;;9.90;;
35394;SDS011;21500;45.308;9.488;2022-12-04T14:31:04;11.80;;;10.60;;
35394;SDS011;21500;45.308;9.488;2022-12-04T14:33:36;11.82;;;10.15;;
35394;SDS011;21500;45.308;9.488;2022-12-04T14:36:18;11.20;;;10.10;;
35394;SDS011;21500;45.308;9.488;2022-12-04T14:43:05;12.57;;;9.85;;
35394;SDS011;21500;45.308;9.488;2022-12-04T14:45:42;11.90;;;10.50;;
35394;SDS011;21500;45.308;9.488;2022-12-04T14:51:11;13.10;;;10.52;;
35394;SDS011;21500;45.308;9.488;2022-12-04T14:53:48;13.43;;;12.05;;
35394;SDS011;21500;45.308;9.488;2022-12-04T14:56:41;12.27;;;11.00;;
35394;SDS011;21500;45.308;9.488;2022-12-04T14:59:21;12.77;;;11.45;;
35394;SDS011;21500;45.308;9.488;2022-12-04T15:01:54;14.18;;;11.98;;
35394;SDS011;21500;45.308;9.488;2022-12-04T15:04:33;14.40;;;12.00;;
35394;SDS011;21500;45.308;9.488;2022-12-04T15:07:30;13.13;;;11.43;;
35394;SDS011;21500;45.308;9.488;2022-12-04T15:09:57;12.43;;;11.13;;
35394;SDS011;21500;45.308;9.488;2022-12-04T15:12:47;12.68;;;11.25;;
35394;SDS011;21500;45.308;9.488;2022-12-04T15:20:38;12.32;;;10.73;;
35394;SDS011;21500;45.308;9.488;2022-12-04T15:27:31;12.35;;;11.05;;
35394;SDS011;21500;45.308;9.488;2022-12-04T15:30:01;11.45;;;10.25;;
35394;SDS011;21500;45.308;9.488;2022-12-04T15:32:31;12.82;;;10.93;;
35394;SDS011;21500;45.308;9.488;2022-12-04T15:35:03;11.95;;;10.75;;
35394;SDS011;21500;45.308;9.488;2022-12-04T15:37:54;12.05;;;10.85;;
35394;SDS011;21500;45.308;9.488;2022-12-04T15:40:22;13.77;;;11.23;;
35394;SDS011;21500;45.308;9.488;2022-12-04T15:43:13;12.75;;;11.45;;
35394;SDS011;21500;45.308;9.488;2022-12-04T15:45:41;12.43;;;11.13;;
35394;SDS011;21500;45.308;9.488;2022-12-04T15:48:07;12.35;;;11.07;;
35394;SDS011;21500;45.308;9.488;2022-12-04T15:50:35;13.93;;;12.48;;
35394;SDS011;21500;45.308;9.488;2022-12-04T17:05:58;14.77;;;13.27;;
35394;SDS011;21500;45.308;9.488;2022-12-04T17:08:29;15.63;;;14.02;;
35394;SDS011;21500;45.308;9.488;2022-12-04T17:10:56;15.98;;;14.32;;
35394;SDS011;21500;45.308;9.488;2022-12-04T17:13:23;15.38;;;13.77;;
35394;SDS011;21500;45.308;9.488;2022-12-04T17:15:52;14.35;;;12.88;;
35394;SDS011;21500;45.308;9.488;2022-12-04T17:18:22;14.50;;;13.00;;
35394;SDS011;21500;45.308;9.488;2022-12-04T17:23:35;16.60;;;14.85;;
35394;SDS011;21500;45.308;9.488;2022-12-04T17:28:43;15.13;;;13.57;;
35394;SDS011;21500;45.308;9.488;2022-12-04T17:31:13;15.38;;;13.68;;
35394;SDS011;21500;45.308;9.488;2022-12-04T17:36:19;17.30;;;15.40;;
35394;SDS011;21500;45.308;9.488;2022-12-04T17:39:09;17.63;;;15.73;;
35394;SDS011;21500;45.308;9.488;2022-12-04T17:41:37;17.52;;;15.68;;
35394;SDS011;21500;45.308;9.488;2022-12-04T17:44:03;18.88;;;16.02;;
35394;SDS011;21500;45.308;9.488;2022-12-04T17:46:29;18.60;;;16.63;;
35394;SDS011;21500;45.308;9.488;2022-12-04T17:51:26;19.38;;;17.23;;
35394;SDS011;21500;45.308;9.488;2022-12-04T17:53:53;18.60;;;16.65;;
35394;SDS011;21500;45.308;9.488;2022-12-04T17:56:42;18.77;;;16.63;;
35394;SDS011;21500;45.308;9.488;2022-12-04T17:59:33;19.10;;;17.20;;
35394;SDS011;21500;45.308;9.488;2022-12-04T18:02:07;17.90;;;16.05;;
35394;SDS011;21500;45.308;9.488;2022-12-04T18:04:36;19.57;;;16.47;;
35394;SDS011;21500;45.308;9.488;2022-12-04T18:07:01;18.00;;;16.10;;
35394;SDS011;21500;45.308;9.488;2022-12-04T18:09:28;19.23;;;17.02;;
35394;SDS011;21500;45.308;9.488;2022-12-04T18:11:58;18.52;;;16.63;;
35394;SDS011;21500;45.308;9.488;2022-12-04T18:14:35;20.00;;;17.80;;
35394;SDS011;21500;45.308;9.488;2022-12-04T18:17:02;20.00;;;17.88;;
35394;SDS011;21500;45.308;9.488;2022-12-04T18:19:28;20.92;;;18.33;;
35394;SDS011;21500;45.308;9.488;2022-12-04T18:21:57;20.33;;;18.13;;
35394;SDS011;21500;45.308;9.488;2022-12-04T18:24:25;21.63;;;19.35;;
35394;SDS011;21500;45.308;9.488;2022-12-04T18:26:51;19.67;;;17.58;;
35394;SDS011;21500;45.308;9.488;2022-12-04T18:29:19;20.40;;;18.17;;
35394;SDS011;21500;45.308;9.488;2022-12-04T18:31:49;21.35;;;17.33;;
35394;SDS011;21500;45.308;9.488;2022-12-04T18:34:17;19.02;;;16.98;;
35394;SDS011;21500;45.308;9.488;2022-12-04T18:36:47;21.38;;;18.38;;
35394;SDS011;21500;45.308;9.488;2022-12-04T18:39:14;21.38;;;18.45;;
35394;SDS011;21500;45.308;9.488;2022-12-04T18:41:42;22.55;;;20.15;;
35394;SDS011;21500;45.308;9.488;2022-12-04T18:44:18;21.05;;;18.77;;
35394;SDS011;21500;45.308;9.488;2022-12-04T18:47:01;20.23;;;17.90;;
35394;SDS011;21500;45.308;9.488;2022-12-04T18:49:29;22.45;;;18.92;;
35394;SDS011;21500;45.308;9.488;2022-12-04T18:51:57;23.52;;;18.45;;
35394;SDS011;21500;45.308;9.488;2022-12-04T18:54:31;22.58;;;19.50;;
35394;SDS011;21500;45.308;9.488;2022-12-04T18:56:57;20.27;;;17.63;;
35394;SDS011;21500;45.308;9.488;2022-12-04T18:59:29;21.23;;;18.90;;
35394;SDS011;21500;45.308;9.488;2022-12-04T19:01:56;21.60;;;18.55;;
35394;SDS011;21500;45.308;9.488;2022-12-04T19:04:23;21.70;;;19.10;;
35394;SDS011;21500;45.308;9.488;2022-12-04T19:06:51;21.35;;;19.00;;
35394;SDS011;21500;45.308;9.488;2022-12-04T19:09:20;26.15;;;19.70;;
35394;SDS011;21500;45.308;9.488;2022-12-04T19:11:52;22.58;;;19.50;;
35394;SDS011;21500;45.308;9.488;2022-12-04T19:20:16;23.10;;;20.50;;
35394;SDS011;21500;45.308;9.488;2022-12-04T19:23:12;21.25;;;18.90;;
35394;SDS011;21500;45.308;9.488;2022-12-04T19:26:29;21.73;;;19.35;;
35394;SDS011;21500;45.308;9.488;2022-12-04T19:43:45;21.13;;;18.88;;
35394;SDS011;21500;45.308;9.488;2022-12-04T20:05:03;25.13;;;21.55;;
35394;SDS011;21500;45.308;9.488;2022-12-04T20:07:35;24.88;;;22.05;;
35394;SDS011;21500;45.308;9.488;2022-12-04T20:10:01;23.63;;;21.13;;
35394;SDS011;21500;45.308;9.488;2022-12-04T20:12:27;24.70;;;21.98;;
35394;SDS011;21500;45.308;9.488;2022-12-04T20:14:54;25.73;;;23.00;;
35394;SDS011;21500;45.308;9.488;2022-12-04T20:17:26;23.92;;;20.90;;
35394;SDS011;21500;45.308;9.488;2022-12-04T20:23:46;24.05;;;20.02;;
35394;SDS011;21500;45.308;9.488;2022-12-04T20:28:40;24.90;;;21.08;;
35394;SDS011;21500;45.308;9.488;2022-12-04T20:33:42;24.80;;;22.10;;
35394;SDS011;21500;45.308;9.488;2022-12-04T20:36:10;23.90;;;21.13;;
35394;SDS011;21500;45.308;9.488;2022-12-04T20:38:37;25.05;;;21.90;;
35394;SDS011;21500;45.308;9.488;2022-12-04T20:41:04;25.77;;;22.20;;
35394;SDS011;21500;45.308;9.488;2022-12-04T20:43:32;27.10;;;23.15;;
35394;SDS011;21500;45.308;9.488;2022-12-04T20:46:00;27.77;;;24.05;;
35394;SDS011;21500;45.308;9.488;2022-12-04T20:48:26;30.92;;;25.63;;
35394;SDS011;21500;45.308;9.488;2022-12-04T20:50:52;28.75;;;23.58;;
35394;SDS011;21500;45.308;9.488;2022-12-04T20:53:18;30.45;;;23.65;;
35394;SDS011;21500;45.308;9.488;2022-12-04T20:55:53;28.25;;;24.42;;
35394;SDS011;21500;45.308;9.488;2022-12-04T20:58:20;33.47;;;27.25;;
35394;SDS011;21500;45.308;9.488;2022-12-04T21:00:46;30.92;;;26.30;;
35394;SDS011;21500;45.308;9.488;2022-12-04T21:03:13;29.25;;;26.05;;
35394;SDS011;21500;45.308;9.488;2022-12-04T21:05:39;31.42;;;26.33;;
35394;SDS011;21500;45.308;9.488;2022-12-04T21:08:04;34.25;;;25.75;;
35394;SDS011;21500;45.308;9.488;2022-12-04T21:10:32;31.55;;;26.25;;
35394;SDS011;21500;45.308;9.488;2022-12-04T21:12:58;29.77;;;25.60;;
35394;SDS011;21500;45.308;9.488;2022-12-04T21:15:42;29.20;;;25.13;;
35394;SDS011;21500;45.308;9.488;2022-12-04T21:18:26;28.20;;;24.52;;
35394;SDS011;21500;45.308;9.488;2022-12-04T21:20:51;25.65;;;22.73;;
35394;SDS011;21500;45.308;9.488;2022-12-04T21:23:17;26.10;;;22.45;;
35394;SDS011;21500;45.308;9.488;2022-12-04T21:25:43;28.17;;;22.98;;
35394;SDS011;21500;45.308;9.488;2022-12-04T21:28:09;28.40;;;23.20;;
35394;SDS011;21500;45.308;9.488;2022-12-04T21:30:35;25.92;;;22.38;;
35394;SDS011;21500;45.308;9.488;2022-12-04T21:33:00;27.85;;;23.00;;
35394;SDS011;21500;45.308;9.488;2022-12-04T21:35:26;28.63;;;23.05;;
35394;SDS011;21500;45.308;9.488;2022-12-04T21:37:53;29.20;;;24.17;;
35394;SDS011;21500;45.308;9.488;2022-12-04T21:40:21;29.55;;;23.02;;
35394;SDS011;21500;45.308;9.488;2022-12-04T21:42:47;28.05;;;23.33;;
35394;SDS011;21500;45.308;9.488;2022-12-04T21:45:13;27.25;;;22.85;;
35394;SDS011;21500;45.308;9.488;2022-12-04T21:47:38;27.50;;;22.90;;
35394;SDS011;21500;45.308;9.488;2022-12-04T21:50:04;26.83;;;22.02;;
35394;SDS011;21500;45.308;9.488;2022-12-04T21:52:31;28.15;;;22.02;;
35394;SDS011;21500;45.308;9.488;2022-12-04T21:54:56;27.50;;;22.20;;
35394;SDS011;21500;45.308;9.488;2022-12-04T21:57:22;29.00;;;22.73;;
35394;SDS011;21500;45.308;9.488;2022-12-04T21:59:51;29.58;;;24.15;;
35394;SDS011;21500;45.308;9.488;2022-12-04T22:02:17;28.80;;;22.77;;
35394;SDS011;21500;45.308;9.488;2022-12-04T22:04:43;30.10;;;24.75;;
35394;SDS011;21500;45.308;9.488;2022-12-04T22:07:09;28.30;;;23.02;;
35394;SDS011;21500;45.308;9.488;2022-12-04T22:09:35;26.17;;;21.25;;
35394;SDS011;21500;45.308;9.488;2022-12-04T22:12:02;26.35;;;21.75;;
35394;SDS011;21500;45.308;9.488;2022-12-04T22:14:28;29.75;;;23.38;;
35394;SDS011;21500;45.308;9.488;2022-12-04T22:16:54;27.35;;;22.50;;
35394;SDS011;21500;45.308;9.488;2022-12-04T22:19:19;28.42;;;24.17;;
35394;SDS011;21500;45.308;9.488;2022-12-04T22:21:45;27.08;;;22.40;;
35394;SDS011;21500;45.308;9.488;2022-12-04T22:24:11;28.95;;;23.65;;
35394;SDS011;21500;45.308;9.488;2022-12-04T22:26:37;26.42;;;22.35;;
35394;SDS011;21500;45.308;9.488;2022-12-04T22:29:03;31.52;;;24.83;;
35394;SDS011;21500;45.308;9.488;2022-12-04T22:31:29;27.98;;;23.08;;
35394;SDS011;21500;45.308;9.488;2022-12-04T22:33:57;28.00;;;22.75;;
35394;SDS011;21500;45.308;9.488;2022-12-04T22:36:25;28.73;;;23.08;;
35394;SDS011;21500;45.308;9.488;2022-12-04T22:38:53;27.45;;;22.30;;
35394;SDS011;21500;45.308;9.488;2022-12-04T22:41:19;28.67;;;24.25;;
35394;SDS011;21500;45.308;9.488;2022-12-04T22:43:46;32.13;;;23.90;;
35394;SDS011;21500;45.308;9.488;2022-12-04T22:46:12;29.23;;;24.30;;
35394;SDS011;21500;45.308;9.488;2022-12-04T22:48:39;29.33;;;23.85;;
35394;SDS011;21500;45.308;9.488;2022-12-04T22:51:08;31.00;;;24.10;;
35394;SDS011;21500;45.308;9.488;2022-12-04T22:53:39;32.00;;;25.45;;
35394;SDS011;21500;45.308;9.488;2022-12-04T22:56:07;28.67;;;23.40;;
35394;SDS011;21500;45.308;9.488;2022-12-04T22:58:44;31.75;;;24.67;;
35394;SDS011;21500;45.308;9.488;2022-12-04T23:01:11;31.35;;;24.90;;
35394;SDS011;21500;45.308;9.488;2022-12-04T23:03:38;32.00;;;26.23;;
35394;SDS011;21500;45.308;9.488;2022-12-04T23:06:04;31.92;;;25.05;;
35394;SDS011;21500;45.308;9.488;2022-12-04T23:08:31;30.95;;;25.55;;
35394;SDS011;21500;45.308;9.488;2022-12-04T23:11:01;29.63;;;23.27;;
35394;SDS011;21500;45.308;9.488;2022-12-04T23:13:30;30.25;;;25.00;;
35394;SDS011;21500;45.308;9.488;2022-12-04T23:15:56;31.92;;;24.48;;
35394;SDS011;21500;45.308;9.488;2022-12-04T23:18:22;29.30;;;23.55;;
35394;SDS011;21500;45.308;9.488;2022-12-04T23:20:48;31.60;;;25.02;;
35394;SDS011;21500;45.308;9.488;2022-12-04T23:23:13;32.13;;;25.40;;
35394;SDS011;21500;45.308;9.488;2022-12-04T23:25:39;32.08;;;25.15;;
35394;SDS011;21500;45.308;9.488;2022-12-04T23:28:05;32.92;;;24.85;;
35394;SDS011;21500;45.308;9.488;2022-12-04T23:30:32;33.47;;;25.20;;
35394;SDS011;21500;45.308;9.488;2022-12-04T23:32:57;32.15;;;24.23;;
35394;SDS011;21500;45.308;9.488;2022-12-04T23:35:23;32.35;;;24.48;;
35394;SDS011;21500;45.308;9.488;2022-12-04T23:37:49;31.42;;;24.30;;
35394;SDS011;21500;45.308;9.488;2022-12-04T23:40:15;29.58;;;23.35;;
35394;SDS011;21500;45.308;9.488;2022-12-04T23:42:40;30.83;;;24.27;;
35394;SDS011;21500;45.308;9.488;2022-12-04T23:45:06;31.92;;;23.73;;
35394;SDS011;21500;45.308;9.488;2022-12-04T23:47:35;29.08;;;23.52;;
35394;SDS011;21500;45.308;9.488;2022-12-04T23:50:01;30.65;;;23.63;;
35394;SDS011;21500;45.308;9.488;2022-12-04T23:52:28;30.75;;;23.50;;
35394;SDS011;21500;45.308;9.488;2022-12-04T23:54:54;32.65;;;22.73;;
35394;SDS011;21500;45.308;9.488;2022-12-04T23:57:20;34.33;;;26.02;;
35394;SDS011;21500;45.308;9.488;2022-12-04T23:59:46;32.80;;;23.40;;
